sensor_id;sensor_type;location;lat;lon;timestamp;temperature;humidity
3542;DHT22;1785;47.388;8.538;2023-07-13T00:00:24;22.30;99.90
3542;DHT22;1785;47.388;8.538;2023-07-13T00:02:50;22.30;99.90
3542;DHT22;1785;47.388;8.538;2023-07-13T00:05:19;22.30;99.90
3542;DHT22;1785;47.388;8.538;2023-07-13T00:07:44;22.30;99.90
3542;DHT22;1785;47.388;8.538;2023-07-13T00:10:11;22.20;99.90
3542;DHT22;1785;47.388;8.538;2023-07-13T00:12:38;22.30;99.90
3542;DHT22;1785;47.388;8.538;2023-07-13T00:15:10;22.30;99.90
3542;DHT22;1785;47.388;8.538;2023-07-13T00:17:38;22.20;99.90
3542;DHT22;1785;47.388;8.538;2023-07-13T00:20:05;22.20;99.90
3542;DHT22;1785;47.388;8.538;2023-07-13T00:22:32;22.30;99.90
3542;DHT22;1785;47.388;8.538;2023-07-13T00:24:58;22.30;99.90
3542;DHT22;1785;47.388;8.538;2023-07-13T00:27:25;22.20;99.90
3542;DHT22;1785;47.388;8.538;2023-07-13T00:29:52;22.00;99.90
3542;DHT22;1785;47.388;8.538;2023-07-13T00:32:18;21.90;99.90
3542;DHT22;1785;47.388;8.538;2023-07-13T00:34:45;22.00;99.90
3542;DHT22;1785;47.388;8.538;2023-07-13T00:37:11;22.20;99.90
3542;DHT22;1785;47.388;8.538;2023-07-13T00:39:37;22.20;99.90
3542;DHT22;1785;47.388;8.538;2023-07-13T00:42:05;22.20;99.90
3542;DHT22;1785;47.388;8.538;2023-07-13T00:44:31;22.10;99.90
3542;DHT22;1785;47.388;8.538;2023-07-13T00:46:57;22.00;99.90
3542;DHT22;1785;47.388;8.538;2023-07-13T00:49:26;21.90;99.90
3542;DHT22;1785;47.388;8.538;2023-07-13T00:52:01;21.80;99.90
3542;DHT22;1785;47.388;8.538;2023-07-13T00:54:30;21.80;99.90
3542;DHT22;1785;47.388;8.538;2023-07-13T00:57:00;21.90;99.90
3542;DHT22;1785;47.388;8.538;2023-07-13T00:59:28;21.80;99.90
3542;DHT22;1785;47.388;8.538;2023-07-13T01:01:54;21.90;99.90
3542;DHT22;1785;47.388;8.538;2023-07-13T01:04:20;21.90;99.90
3542;DHT22;1785;47.388;8.538;2023-07-13T01:06:49;22.00;99.90
3542;DHT22;1785;47.388;8.538;2023-07-13T01:09:15;22.10;99.90
3542;DHT22;1785;47.388;8.538;2023-07-13T01:11:41;22.00;99.90
3542;DHT22;1785;47.388;8.538;2023-07-13T01:14:08;21.80;99.90
3542;DHT22;1785;47.388;8.538;2023-07-13T01:16:36;21.90;99.90
3542;DHT22;1785;47.388;8.538;2023-07-13T01:19:08;22.00;99.90
3542;DHT22;1785;47.388;8.538;2023-07-13T01:21:39;22.10;99.90
3542;DHT22;1785;47.388;8.538;2023-07-13T01:24:08;22.00;99.90
3542;DHT22;1785;47.388;8.538;2023-07-13T01:26:34;21.90;99.90
3542;DHT22;1785;47.388;8.538;2023-07-13T01:29:00;21.90;99.90
3542;DHT22;1785;47.388;8.538;2023-07-13T01:31:27;21.70;99.90
3542;DHT22;1785;47.388;8.538;2023-07-13T01:33:53;21.80;99.90
3542;DHT22;1785;47.388;8.538;2023-07-13T01:36:20;21.90;99.90
3542;DHT22;1785;47.388;8.538;2023-07-13T01:38:47;22.00;99.90
3542;DHT22;1785;47.388;8.538;2023-07-13T01:41:13;22.00;99.90
3542;DHT22;1785;47.388;8.538;2023-07-13T01:43:39;22.10;99.90
3542;DHT22;1785;47.388;8.538;2023-07-13T01:46:05;22.00;99.90
3542;DHT22;1785;47.388;8.538;2023-07-13T01:48:31;22.10;99.90
3542;DHT22;1785;47.388;8.538;2023-07-13T01:50:57;22.00;99.90
3542;DHT22;1785;47.388;8.538;2023-07-13T01:53:23;22.00;99.90
3542;DHT22;1785;47.388;8.538;2023-07-13T01:55:49;21.90;99.90
3542;DHT22;1785;47.388;8.538;2023-07-13T01:58:15;21.80;99.90
3542;DHT22;1785;47.388;8.538;2023-07-13T02:00:41;21.80;99.90
3542;DHT22;1785;47.388;8.538;2023-07-13T02:03:07;21.90;99.90
3542;DHT22;1785;47.388;8.538;2023-07-13T02:05:33;21.80;99.90
3542;DHT22;1785;47.388;8.538;2023-07-13T02:07:59;21.90;99.90
3542;DHT22;1785;47.388;8.538;2023-07-13T02:10:25;21.80;99.90
3542;DHT22;1785;47.388;8.538;2023-07-13T02:12:52;21.50;99.90
3542;DHT22;1785;47.388;8.538;2023-07-13T02:15:18;21.50;99.90
3542;DHT22;1785;47.388;8.538;2023-07-13T02:17:44;21.60;99.90
3542;DHT22;1785;47.388;8.538;2023-07-13T02:20:10;21.90;99.90
3542;DHT22;1785;47.388;8.538;2023-07-13T02:22:36;22.00;99.90
3542;DHT22;1785;47.388;8.538;2023-07-13T02:25:03;22.10;99.90
3542;DHT22;1785;47.388;8.538;2023-07-13T02:27:29;22.10;99.90
3542;DHT22;1785;47.388;8.538;2023-07-13T02:29:56;21.90;99.90
3542;DHT22;1785;47.388;8.538;2023-07-13T02:32:22;21.90;99.90
3542;DHT22;1785;47.388;8.538;2023-07-13T02:34:50;21.90;99.90
3542;DHT22;1785;47.388;8.538;2023-07-13T02:37:16;22.00;99.90
3542;DHT22;1785;47.388;8.538;2023-07-13T02:39:42;22.00;99.90
3542;DHT22;1785;47.388;8.538;2023-07-13T02:42:08;22.00;99.90
3542;DHT22;1785;47.388;8.538;2023-07-13T02:44:34;21.90;99.90
3542;DHT22;1785;47.388;8.538;2023-07-13T02:47:01;21.80;99.90
3542;DHT22;1785;47.388;8.538;2023-07-13T02:49:27;21.80;99.90
3542;DHT22;1785;47.388;8.538;2023-07-13T02:51:53;21.80;99.90
3542;DHT22;1785;47.388;8.538;2023-07-13T02:54:19;21.80;99.90
3542;DHT22;1785;47.388;8.538;2023-07-13T02:56:45;21.80;99.90
3542;DHT22;1785;47.388;8.538;2023-07-13T02:59:11;21.80;99.90
3542;DHT22;1785;47.388;8.538;2023-07-13T03:01:37;21.80;99.90
3542;DHT22;1785;47.388;8.538;2023-07-13T03:04:04;21.10;99.90
3542;DHT22;1785;47.388;8.538;2023-07-13T03:06:31;20.80;99.90
3542;DHT22;1785;47.388;8.538;2023-07-13T03:08:57;21.00;99.90
3542;DHT22;1785;47.388;8.538;2023-07-13T03:11:23;21.30;99.90
3542;DHT22;1785;47.388;8.538;2023-07-13T03:13:49;21.60;99.90
3542;DHT22;1785;47.388;8.538;2023-07-13T03:16:15;21.70;99.90
3542;DHT22;1785;47.388;8.538;2023-07-13T03:18:42;21.70;99.90
3542;DHT22;1785;47.388;8.538;2023-07-13T03:21:09;21.90;99.90
3542;DHT22;1785;47.388;8.538;2023-07-13T03:23:35;21.90;99.90
3542;DHT22;1785;47.388;8.538;2023-07-13T03:26:02;21.90;99.90
3542;DHT22;1785;47.388;8.538;2023-07-13T03:28:29;21.90;99.90
3542;DHT22;1785;47.388;8.538;2023-07-13T03:30:59;21.80;99.90
3542;DHT22;1785;47.388;8.538;2023-07-13T03:33:26;21.90;99.90
3542;DHT22;1785;47.388;8.538;2023-07-13T03:35:52;21.90;99.90
3542;DHT22;1785;47.388;8.538;2023-07-13T03:38:18;21.80;99.90
3542;DHT22;1785;47.388;8.538;2023-07-13T03:40:45;21.80;99.90
3542;DHT22;1785;47.388;8.538;2023-07-13T03:43:11;21.90;99.90
3542;DHT22;1785;47.388;8.538;2023-07-13T03:45:37;21.90;99.90
3542;DHT22;1785;47.388;8.538;2023-07-13T03:48:04;21.90;99.90
3542;DHT22;1785;47.388;8.538;2023-07-13T03:50:30;21.70;99.90
3542;DHT22;1785;47.388;8.538;2023-07-13T03:52:57;21.30;99.90
3542;DHT22;1785;47.388;8.538;2023-07-13T03:55:24;21.10;99.90
3542;DHT22;1785;47.388;8.538;2023-07-13T03:57:58;21.10;99.90
3542;DHT22;1785;47.388;8.538;2023-07-13T04:00:25;21.30;99.90
3542;DHT22;1785;47.388;8.538;2023-07-13T04:02:51;21.50;99.90
3542;DHT22;1785;47.388;8.538;2023-07-13T04:05:17;21.70;99.90
3542;DHT22;1785;47.388;8.538;2023-07-13T04:07:43;21.50;99.90
3542;DHT22;1785;47.388;8.538;2023-07-13T04:10:09;21.40;99.90
3542;DHT22;1785;47.388;8.538;2023-07-13T04:12:36;21.30;99.90
3542;DHT22;1785;47.388;8.538;2023-07-13T04:15:03;21.30;99.90
3542;DHT22;1785;47.388;8.538;2023-07-13T04:17:29;21.10;99.90
3542;DHT22;1785;47.388;8.538;2023-07-13T04:19:55;21.10;99.90
3542;DHT22;1785;47.388;8.538;2023-07-13T04:22:21;21.20;99.90
3542;DHT22;1785;47.388;8.538;2023-07-13T04:24:47;21.30;99.90
3542;DHT22;1785;47.388;8.538;2023-07-13T04:27:13;21.30;99.90
3542;DHT22;1785;47.388;8.538;2023-07-13T04:29:39;21.30;99.90
3542;DHT22;1785;47.388;8.538;2023-07-13T04:32:06;21.20;99.90
3542;DHT22;1785;47.388;8.538;2023-07-13T04:34:32;21.30;99.90
3542;DHT22;1785;47.388;8.538;2023-07-13T04:36:58;21.20;99.90
3542;DHT22;1785;47.388;8.538;2023-07-13T04:39:24;21.20;99.90
3542;DHT22;1785;47.388;8.538;2023-07-13T04:41:50;21.30;99.90
3542;DHT22;1785;47.388;8.538;2023-07-13T04:44:16;21.40;99.90
3542;DHT22;1785;47.388;8.538;2023-07-13T04:46:43;21.50;99.90
3542;DHT22;1785;47.388;8.538;2023-07-13T04:49:09;21.70;99.90
3542;DHT22;1785;47.388;8.538;2023-07-13T04:51:35;22.00;99.90
3542;DHT22;1785;47.388;8.538;2023-07-13T04:54:01;22.40;99.90
3542;DHT22;1785;47.388;8.538;2023-07-13T04:56:27;22.50;99.90
3542;DHT22;1785;47.388;8.538;2023-07-13T04:58:53;22.70;99.90
3542;DHT22;1785;47.388;8.538;2023-07-13T05:01:19;22.90;99.90
3542;DHT22;1785;47.388;8.538;2023-07-13T05:03:46;22.70;99.90
3542;DHT22;1785;47.388;8.538;2023-07-13T05:06:12;22.60;99.90
3542;DHT22;1785;47.388;8.538;2023-07-13T05:08:39;22.80;99.90
3542;DHT22;1785;47.388;8.538;2023-07-13T05:11:05;23.10;99.90
3542;DHT22;1785;47.388;8.538;2023-07-13T05:13:32;22.90;99.90
3542;DHT22;1785;47.388;8.538;2023-07-13T05:16:00;22.60;99.90
3542;DHT22;1785;47.388;8.538;2023-07-13T05:18:26;22.50;99.90
3542;DHT22;1785;47.388;8.538;2023-07-13T05:21:01;22.20;99.90
3542;DHT22;1785;47.388;8.538;2023-07-13T05:23:28;21.80;99.90
3542;DHT22;1785;47.388;8.538;2023-07-13T05:25:54;21.60;99.90
3542;DHT22;1785;47.388;8.538;2023-07-13T05:28:20;21.50;99.90
3542;DHT22;1785;47.388;8.538;2023-07-13T05:30:47;21.70;99.90
3542;DHT22;1785;47.388;8.538;2023-07-13T05:33:13;21.90;99.90
3542;DHT22;1785;47.388;8.538;2023-07-13T05:35:39;21.80;99.90
3542;DHT22;1785;47.388;8.538;2023-07-13T05:38:06;21.50;99.90
3542;DHT22;1785;47.388;8.538;2023-07-13T05:40:32;21.60;99.90
3542;DHT22;1785;47.388;8.538;2023-07-13T05:42:58;22.00;99.90
3542;DHT22;1785;47.388;8.538;2023-07-13T05:45:24;22.00;99.90
3542;DHT22;1785;47.388;8.538;2023-07-13T05:47:51;21.70;99.90
3542;DHT22;1785;47.388;8.538;2023-07-13T05:50:17;21.60;99.90
3542;DHT22;1785;47.388;8.538;2023-07-13T05:52:43;21.50;99.90
3542;DHT22;1785;47.388;8.538;2023-07-13T05:55:10;21.50;99.90
3542;DHT22;1785;47.388;8.538;2023-07-13T05:57:36;21.60;99.90
3542;DHT22;1785;47.388;8.538;2023-07-13T06:00:02;21.40;99.90
3542;DHT22;1785;47.388;8.538;2023-07-13T06:02:28;21.60;99.90
3542;DHT22;1785;47.388;8.538;2023-07-13T06:04:54;21.60;99.90
3542;DHT22;1785;47.388;8.538;2023-07-13T06:07:20;21.20;99.90
3542;DHT22;1785;47.388;8.538;2023-07-13T06:09:46;21.00;99.90
3542;DHT22;1785;47.388;8.538;2023-07-13T06:12:13;21.00;99.90
3542;DHT22;1785;47.388;8.538;2023-07-13T06:14:39;21.00;99.90
3542;DHT22;1785;47.388;8.538;2023-07-13T06:17:05;20.80;99.90
3542;DHT22;1785;47.388;8.538;2023-07-13T06:19:32;21.10;99.90
3542;DHT22;1785;47.388;8.538;2023-07-13T06:21:58;21.40;99.90
3542;DHT22;1785;47.388;8.538;2023-07-13T06:24:24;21.40;99.90
3542;DHT22;1785;47.388;8.538;2023-07-13T06:26:50;21.60;99.90
3542;DHT22;1785;47.388;8.538;2023-07-13T06:29:16;21.60;99.90
3542;DHT22;1785;47.388;8.538;2023-07-13T06:31:42;21.60;99.90
3542;DHT22;1785;47.388;8.538;2023-07-13T06:34:08;21.70;99.90
3542;DHT22;1785;47.388;8.538;2023-07-13T06:36:34;21.70;99.90
3542;DHT22;1785;47.388;8.538;2023-07-13T06:39:01;21.60;99.90
3542;DHT22;1785;47.388;8.538;2023-07-13T06:41:27;21.60;99.90
3542;DHT22;1785;47.388;8.538;2023-07-13T06:43:54;21.50;99.90
3542;DHT22;1785;47.388;8.538;2023-07-13T06:46:21;21.70;99.90
3542;DHT22;1785;47.388;8.538;2023-07-13T06:48:47;21.70;99.90
3542;DHT22;1785;47.388;8.538;2023-07-13T06:51:13;21.60;99.90
3542;DHT22;1785;47.388;8.538;2023-07-13T06:53:39;21.50;99.90
3542;DHT22;1785;47.388;8.538;2023-07-13T06:56:05;21.40;99.90
3542;DHT22;1785;47.388;8.538;2023-07-13T06:58:33;21.30;99.90
3542;DHT22;1785;47.388;8.538;2023-07-13T07:01:00;21.30;99.90
3542;DHT22;1785;47.388;8.538;2023-07-13T07:03:26;21.30;99.90
3542;DHT22;1785;47.388;8.538;2023-07-13T07:05:52;21.40;99.90
3542;DHT22;1785;47.388;8.538;2023-07-13T07:08:18;21.40;99.90
3542;DHT22;1785;47.388;8.538;2023-07-13T07:10:44;21.40;99.90
3542;DHT22;1785;47.388;8.538;2023-07-13T07:13:12;21.40;99.90
3542;DHT22;1785;47.388;8.538;2023-07-13T07:15:38;21.30;99.90
3542;DHT22;1785;47.388;8.538;2023-07-13T07:18:04;21.30;99.90
3542;DHT22;1785;47.388;8.538;2023-07-13T07:20:30;21.40;99.90
3542;DHT22;1785;47.388;8.538;2023-07-13T07:22:58;21.30;99.90
3542;DHT22;1785;47.388;8.538;2023-07-13T07:25:24;21.40;99.90
3542;DHT22;1785;47.388;8.538;2023-07-13T07:27:50;21.40;99.90
3542;DHT22;1785;47.388;8.538;2023-07-13T07:30:16;21.30;99.90
3542;DHT22;1785;47.388;8.538;2023-07-13T07:32:42;21.30;99.90
3542;DHT22;1785;47.388;8.538;2023-07-13T07:35:08;21.30;99.90
3542;DHT22;1785;47.388;8.538;2023-07-13T07:37:35;21.40;99.90
3542;DHT22;1785;47.388;8.538;2023-07-13T07:40:01;21.40;99.90
3542;DHT22;1785;47.388;8.538;2023-07-13T07:42:27;21.40;99.90
3542;DHT22;1785;47.388;8.538;2023-07-13T07:44:53;21.00;99.90
3542;DHT22;1785;47.388;8.538;2023-07-13T07:47:19;20.90;99.90
3542;DHT22;1785;47.388;8.538;2023-07-13T07:49:45;21.00;99.90
3542;DHT22;1785;47.388;8.538;2023-07-13T07:52:11;21.20;99.90
3542;DHT22;1785;47.388;8.538;2023-07-13T07:54:38;21.20;99.90
3542;DHT22;1785;47.388;8.538;2023-07-13T07:57:05;21.30;99.90
3542;DHT22;1785;47.388;8.538;2023-07-13T07:59:31;21.50;99.90
3542;DHT22;1785;47.388;8.538;2023-07-13T08:01:57;21.20;99.90
3542;DHT22;1785;47.388;8.538;2023-07-13T08:04:23;20.90;99.90
3542;DHT22;1785;47.388;8.538;2023-07-13T08:06:49;21.00;99.90
3542;DHT22;1785;47.388;8.538;2023-07-13T08:09:15;21.10;99.90
3542;DHT22;1785;47.388;8.538;2023-07-13T08:11:42;21.30;99.90
3542;DHT22;1785;47.388;8.538;2023-07-13T08:14:08;21.50;99.90
3542;DHT22;1785;47.388;8.538;2023-07-13T08:16:35;21.70;99.90
3542;DHT22;1785;47.388;8.538;2023-07-13T08:19:01;21.80;99.90
3542;DHT22;1785;47.388;8.538;2023-07-13T08:21:27;22.00;99.90
3542;DHT22;1785;47.388;8.538;2023-07-13T08:23:53;22.00;99.90
3542;DHT22;1785;47.388;8.538;2023-07-13T08:26:19;22.10;99.90
3542;DHT22;1785;47.388;8.538;2023-07-13T08:28:46;22.20;99.90
3542;DHT22;1785;47.388;8.538;2023-07-13T08:31:12;22.30;99.90
3542;DHT22;1785;47.388;8.538;2023-07-13T08:33:39;22.10;99.90
3542;DHT22;1785;47.388;8.538;2023-07-13T08:36:06;22.10;99.90
3542;DHT22;1785;47.388;8.538;2023-07-13T08:38:33;22.40;99.90
3542;DHT22;1785;47.388;8.538;2023-07-13T08:41:00;22.50;99.90
3542;DHT22;1785;47.388;8.538;2023-07-13T08:43:29;22.10;99.90
3542;DHT22;1785;47.388;8.538;2023-07-13T08:46:04;21.90;99.90
3542;DHT22;1785;47.388;8.538;2023-07-13T08:48:36;21.90;99.90
3542;DHT22;1785;47.388;8.538;2023-07-13T08:51:12;21.70;99.90
3542;DHT22;1785;47.388;8.538;2023-07-13T08:53:47;21.70;99.90
3542;DHT22;1785;47.388;8.538;2023-07-13T08:56:18;21.40;99.90
3542;DHT22;1785;47.388;8.538;2023-07-13T08:58:46;21.60;99.90
3542;DHT22;1785;47.388;8.538;2023-07-13T09:01:19;21.50;99.90
3542;DHT22;1785;47.388;8.538;2023-07-13T09:03:50;21.50;99.90
3542;DHT22;1785;47.388;8.538;2023-07-13T09:06:31;21.30;99.90
3542;DHT22;1785;47.388;8.538;2023-07-13T09:09:02;21.40;99.90
3542;DHT22;1785;47.388;8.538;2023-07-13T09:11:43;21.50;99.90
3542;DHT22;1785;47.388;8.538;2023-07-13T09:14:26;21.60;99.90
3542;DHT22;1785;47.388;8.538;2023-07-13T09:16:58;21.50;99.90
3542;DHT22;1785;47.388;8.538;2023-07-13T09:19:30;21.60;99.90
3542;DHT22;1785;47.388;8.538;2023-07-13T09:21:59;21.70;99.90
3542;DHT22;1785;47.388;8.538;2023-07-13T09:24:35;21.70;99.90
3542;DHT22;1785;47.388;8.538;2023-07-13T09:27:08;21.80;99.90
3542;DHT22;1785;47.388;8.538;2023-07-13T09:29:37;21.90;99.90
3542;DHT22;1785;47.388;8.538;2023-07-13T09:32:09;22.00;99.90
3542;DHT22;1785;47.388;8.538;2023-07-13T09:34:36;22.20;99.90
3542;DHT22;1785;47.388;8.538;2023-07-13T09:37:03;22.50;99.90
3542;DHT22;1785;47.388;8.538;2023-07-13T09:39:33;22.50;99.90
3542;DHT22;1785;47.388;8.538;2023-07-13T09:42:06;22.50;99.90
3542;DHT22;1785;47.388;8.538;2023-07-13T09:44:34;22.60;99.90
3542;DHT22;1785;47.388;8.538;2023-07-13T09:47:01;22.80;99.90
3542;DHT22;1785;47.388;8.538;2023-07-13T09:49:31;22.70;99.90
3542;DHT22;1785;47.388;8.538;2023-07-13T09:52:00;23.00;99.90
3542;DHT22;1785;47.388;8.538;2023-07-13T09:54:27;23.20;99.90
3542;DHT22;1785;47.388;8.538;2023-07-13T09:56:54;23.40;99.90
3542;DHT22;1785;47.388;8.538;2023-07-13T09:59:22;23.50;99.90
3542;DHT22;1785;47.388;8.538;2023-07-13T10:01:49;23.50;99.90
3542;DHT22;1785;47.388;8.538;2023-07-13T10:04:18;23.40;99.90
3542;DHT22;1785;47.388;8.538;2023-07-13T10:06:46;23.10;99.90
3542;DHT22;1785;47.388;8.538;2023-07-13T10:09:15;22.40;99.90
3542;DHT22;1785;47.388;8.538;2023-07-13T10:11:41;22.20;99.90
3542;DHT22;1785;47.388;8.538;2023-07-13T10:14:14;22.40;99.90
3542;DHT22;1785;47.388;8.538;2023-07-13T10:16:42;22.60;99.90
3542;DHT22;1785;47.388;8.538;2023-07-13T10:19:13;22.80;99.90
3542;DHT22;1785;47.388;8.538;2023-07-13T10:21:47;22.90;99.90
3542;DHT22;1785;47.388;8.538;2023-07-13T10:24:17;22.60;99.90
3542;DHT22;1785;47.388;8.538;2023-07-13T10:26:48;22.30;99.90
3542;DHT22;1785;47.388;8.538;2023-07-13T10:29:16;22.30;99.90
3542;DHT22;1785;47.388;8.538;2023-07-13T10:31:45;22.60;99.90
3542;DHT22;1785;47.388;8.538;2023-07-13T10:34:12;22.90;99.90
3542;DHT22;1785;47.388;8.538;2023-07-13T10:36:40;22.70;99.90
3542;DHT22;1785;47.388;8.538;2023-07-13T10:39:15;22.10;99.90
3542;DHT22;1785;47.388;8.538;2023-07-13T10:41:43;22.10;99.90
3542;DHT22;1785;47.388;8.538;2023-07-13T10:44:18;22.40;99.90
3542;DHT22;1785;47.388;8.538;2023-07-13T10:46:45;22.70;99.90
3542;DHT22;1785;47.388;8.538;2023-07-13T10:49:12;23.00;99.90
3542;DHT22;1785;47.388;8.538;2023-07-13T10:51:39;23.10;99.90
3542;DHT22;1785;47.388;8.538;2023-07-13T10:54:21;23.00;99.90
3542;DHT22;1785;47.388;8.538;2023-07-13T10:56:50;22.60;99.90
3542;DHT22;1785;47.388;8.538;2023-07-13T10:59:18;22.60;99.90
3542;DHT22;1785;47.388;8.538;2023-07-13T11:01:54;23.00;99.90
3542;DHT22;1785;47.388;8.538;2023-07-13T11:04:22;23.00;99.90
3542;DHT22;1785;47.388;8.538;2023-07-13T11:06:52;22.50;99.90
3542;DHT22;1785;47.388;8.538;2023-07-13T11:09:35;22.50;99.90
3542;DHT22;1785;47.388;8.538;2023-07-13T11:12:06;22.80;99.90
3542;DHT22;1785;47.388;8.538;2023-07-13T11:14:35;22.90;99.90
3542;DHT22;1785;47.388;8.538;2023-07-13T11:17:29;23.10;99.90
3542;DHT22;1785;47.388;8.538;2023-07-13T11:20:10;23.40;99.90
3542;DHT22;1785;47.388;8.538;2023-07-13T11:22:47;23.80;99.90
3542;DHT22;1785;47.388;8.538;2023-07-13T11:25:27;23.70;99.90
3542;DHT22;1785;47.388;8.538;2023-07-13T11:28:11;23.60;99.90
3542;DHT22;1785;47.388;8.538;2023-07-13T11:30:39;23.80;99.90
3542;DHT22;1785;47.388;8.538;2023-07-13T11:33:13;23.60;99.90
3542;DHT22;1785;47.388;8.538;2023-07-13T11:35:52;23.90;99.90
3542;DHT22;1785;47.388;8.538;2023-07-13T11:38:21;23.90;99.90
3542;DHT22;1785;47.388;8.538;2023-07-13T11:40:51;23.60;99.90
3542;DHT22;1785;47.388;8.538;2023-07-13T11:43:19;23.40;99.90
3542;DHT22;1785;47.388;8.538;2023-07-13T11:45:45;23.40;99.90
3542;DHT22;1785;47.388;8.538;2023-07-13T11:48:19;23.60;99.90
3542;DHT22;1785;47.388;8.538;2023-07-13T11:50:51;24.00;99.90
3542;DHT22;1785;47.388;8.538;2023-07-13T11:53:17;24.50;99.90
3542;DHT22;1785;47.388;8.538;2023-07-13T11:55:43;24.70;99.90
3542;DHT22;1785;47.388;8.538;2023-07-13T11:58:10;24.80;99.90
3542;DHT22;1785;47.388;8.538;2023-07-13T12:00:37;24.20;99.90
3542;DHT22;1785;47.388;8.538;2023-07-13T12:03:04;24.00;99.90
3542;DHT22;1785;47.388;8.538;2023-07-13T12:05:33;24.50;99.90
3542;DHT22;1785;47.388;8.538;2023-07-13T12:08:09;24.60;99.90
3542;DHT22;1785;47.388;8.538;2023-07-13T12:10:36;24.30;99.90
3542;DHT22;1785;47.388;8.538;2023-07-13T12:13:05;24.20;99.90
3542;DHT22;1785;47.388;8.538;2023-07-13T12:15:37;24.40;99.90
3542;DHT22;1785;47.388;8.538;2023-07-13T12:18:11;24.20;99.90
3542;DHT22;1785;47.388;8.538;2023-07-13T12:20:38;24.40;99.90
3542;DHT22;1785;47.388;8.538;2023-07-13T12:23:05;24.60;99.90
3542;DHT22;1785;47.388;8.538;2023-07-13T12:25:31;24.90;99.90
3542;DHT22;1785;47.388;8.538;2023-07-13T12:27:58;25.00;99.90
3542;DHT22;1785;47.388;8.538;2023-07-13T12:30:27;24.80;99.90
3542;DHT22;1785;47.388;8.538;2023-07-13T12:33:01;24.60;99.90
3542;DHT22;1785;47.388;8.538;2023-07-13T12:35:29;24.40;99.90
3542;DHT22;1785;47.388;8.538;2023-07-13T12:37:57;24.10;99.90
3542;DHT22;1785;47.388;8.538;2023-07-13T12:40:27;24.10;99.90
3542;DHT22;1785;47.388;8.538;2023-07-13T12:42:54;24.30;99.90
3542;DHT22;1785;47.388;8.538;2023-07-13T12:45:22;24.70;99.90
3542;DHT22;1785;47.388;8.538;2023-07-13T12:47:52;25.00;99.90
3542;DHT22;1785;47.388;8.538;2023-07-13T12:50:21;24.80;99.90
3542;DHT22;1785;47.388;8.538;2023-07-13T12:52:51;25.00;99.90
3542;DHT22;1785;47.388;8.538;2023-07-13T12:55:19;25.30;99.90
3542;DHT22;1785;47.388;8.538;2023-07-13T12:57:50;25.50;99.90
3542;DHT22;1785;47.388;8.538;2023-07-13T13:00:25;25.60;99.90
3542;DHT22;1785;47.388;8.538;2023-07-13T13:02:53;25.50;99.90
3542;DHT22;1785;47.388;8.538;2023-07-13T13:05:21;25.60;99.90
3542;DHT22;1785;47.388;8.538;2023-07-13T13:07:49;25.70;99.90
3542;DHT22;1785;47.388;8.538;2023-07-13T13:10:15;25.70;99.90
3542;DHT22;1785;47.388;8.538;2023-07-13T13:12:42;25.80;99.90
3542;DHT22;1785;47.388;8.538;2023-07-13T13:15:08;25.50;99.90
3542;DHT22;1785;47.388;8.538;2023-07-13T13:17:35;25.30;99.90
3542;DHT22;1785;47.388;8.538;2023-07-13T13:20:01;25.20;99.90
3542;DHT22;1785;47.388;8.538;2023-07-13T13:22:28;24.90;99.90
3542;DHT22;1785;47.388;8.538;2023-07-13T13:24:54;24.40;99.90
3542;DHT22;1785;47.388;8.538;2023-07-13T13:27:21;24.40;99.90
3542;DHT22;1785;47.388;8.538;2023-07-13T13:29:49;24.40;99.90
3542;DHT22;1785;47.388;8.538;2023-07-13T13:32:17;24.00;99.90
3542;DHT22;1785;47.388;8.538;2023-07-13T13:34:44;24.00;99.90
3542;DHT22;1785;47.388;8.538;2023-07-13T13:37:17;24.40;99.90
3542;DHT22;1785;47.388;8.538;2023-07-13T13:39:45;24.80;99.90
3542;DHT22;1785;47.388;8.538;2023-07-13T13:42:12;24.90;99.90
3542;DHT22;1785;47.388;8.538;2023-07-13T13:44:38;25.10;99.90
3542;DHT22;1785;47.388;8.538;2023-07-13T13:47:17;25.00;99.90
3542;DHT22;1785;47.388;8.538;2023-07-13T13:49:45;25.30;99.90
3542;DHT22;1785;47.388;8.538;2023-07-13T13:52:13;25.70;99.90
3542;DHT22;1785;47.388;8.538;2023-07-13T13:54:39;26.10;99.90
3542;DHT22;1785;47.388;8.538;2023-07-13T13:57:07;26.30;99.90
3542;DHT22;1785;47.388;8.538;2023-07-13T13:59:33;26.60;99.90
3542;DHT22;1785;47.388;8.538;2023-07-13T14:02:20;26.60;99.90
3542;DHT22;1785;47.388;8.538;2023-07-13T14:07:15;27.20;99.90
3542;DHT22;1785;47.388;8.538;2023-07-13T14:09:41;27.20;99.90
3542;DHT22;1785;47.388;8.538;2023-07-13T14:12:10;26.60;99.90
3542;DHT22;1785;47.388;8.538;2023-07-13T14:14:38;26.00;99.90
3542;DHT22;1785;47.388;8.538;2023-07-13T14:17:04;25.80;99.90
3542;DHT22;1785;47.388;8.538;2023-07-13T14:19:30;25.70;99.90
3542;DHT22;1785;47.388;8.538;2023-07-13T14:21:56;25.60;99.90
3542;DHT22;1785;47.388;8.538;2023-07-13T14:24:22;25.70;99.90
3542;DHT22;1785;47.388;8.538;2023-07-13T14:26:48;25.70;99.90
3542;DHT22;1785;47.388;8.538;2023-07-13T14:29:17;25.50;99.90
3542;DHT22;1785;47.388;8.538;2023-07-13T14:31:44;25.60;99.90
3542;DHT22;1785;47.388;8.538;2023-07-13T14:34:11;25.90;99.90
3542;DHT22;1785;47.388;8.538;2023-07-13T14:36:40;25.70;99.90
3542;DHT22;1785;47.388;8.538;2023-07-13T14:39:12;25.90;99.90
3542;DHT22;1785;47.388;8.538;2023-07-13T14:41:39;25.60;99.90
3542;DHT22;1785;47.388;8.538;2023-07-13T14:44:14;25.10;99.90
3542;DHT22;1785;47.388;8.538;2023-07-13T14:46:42;24.80;99.90
3542;DHT22;1785;47.388;8.538;2023-07-13T14:49:15;24.60;99.90
3542;DHT22;1785;47.388;8.538;2023-07-13T14:51:44;24.60;99.90
3542;DHT22;1785;47.388;8.538;2023-07-13T14:54:10;24.70;99.90
3542;DHT22;1785;47.388;8.538;2023-07-13T14:56:37;25.00;99.90
3542;DHT22;1785;47.388;8.538;2023-07-13T14:59:03;25.40;99.90
3542;DHT22;1785;47.388;8.538;2023-07-13T15:01:30;25.50;99.90
3542;DHT22;1785;47.388;8.538;2023-07-13T15:03:58;25.90;99.90
3542;DHT22;1785;47.388;8.538;2023-07-13T15:06:25;26.10;99.90
3542;DHT22;1785;47.388;8.538;2023-07-13T15:08:51;26.40;99.90
3542;DHT22;1785;47.388;8.538;2023-07-13T15:11:17;26.20;99.90
3542;DHT22;1785;47.388;8.538;2023-07-13T15:13:43;26.10;99.90
3542;DHT22;1785;47.388;8.538;2023-07-13T15:16:18;26.30;99.90
3542;DHT22;1785;47.388;8.538;2023-07-13T15:18:46;26.70;99.90
3542;DHT22;1785;47.388;8.538;2023-07-13T15:21:23;26.60;99.90
3542;DHT22;1785;47.388;8.538;2023-07-13T15:23:50;26.40;99.90
3542;DHT22;1785;47.388;8.538;2023-07-13T15:26:18;26.60;99.90
3542;DHT22;1785;47.388;8.538;2023-07-13T15:28:45;26.50;99.90
3542;DHT22;1785;47.388;8.538;2023-07-13T15:31:20;26.30;99.90
3542;DHT22;1785;47.388;8.538;2023-07-13T15:33:47;26.50;99.90
3542;DHT22;1785;47.388;8.538;2023-07-13T15:36:16;27.10;99.90
3542;DHT22;1785;47.388;8.538;2023-07-13T15:38:43;27.40;99.10
3542;DHT22;1785;47.388;8.538;2023-07-13T15:41:16;27.40;99.00
3542;DHT22;1785;47.388;8.538;2023-07-13T15:43:42;27.20;98.40
3542;DHT22;1785;47.388;8.538;2023-07-13T15:46:09;27.10;98.40
3542;DHT22;1785;47.388;8.538;2023-07-13T15:48:36;27.40;99.40
3542;DHT22;1785;47.388;8.538;2023-07-13T15:51:05;27.50;98.20
3542;DHT22;1785;47.388;8.538;2023-07-13T15:53:39;28.00;98.00
3542;DHT22;1785;47.388;8.538;2023-07-13T15:56:17;27.80;97.40
3542;DHT22;1785;47.388;8.538;2023-07-13T15:58:43;28.20;97.10
3542;DHT22;1785;47.388;8.538;2023-07-13T16:01:10;27.90;96.50
3542;DHT22;1785;47.388;8.538;2023-07-13T16:03:36;27.10;96.60
3542;DHT22;1785;47.388;8.538;2023-07-13T16:06:03;27.10;97.90
3542;DHT22;1785;47.388;8.538;2023-07-13T16:08:31;27.80;96.90